createdAt,value
2022-08-17T00:05:57.273Z,15.40
2022-08-17T00:08:25.664Z,16.40
2022-08-17T00:10:53.076Z,17.80
2022-08-17T00:13:29.503Z,18.20
2022-08-17T00:15:59.381Z,16.20
2022-08-17T00:19:06.171Z,17.00
2022-08-17T00:21:16.142Z,16.00
2022-08-17T00:23:50.722Z,16.10
2022-08-17T00:26:43.477Z,17.10
2022-08-17T00:31:31.940Z,15.80
2022-08-17T00:33:59.382Z,15.60
2022-08-17T00:36:26.091Z,15.40
2022-08-17T00:38:52.727Z,15.70
2022-08-17T00:41:21.376Z,14.70
2022-08-17T00:43:49.703Z,15.40
2022-08-17T00:46:18.016Z,16.90
2022-08-17T00:48:45.126Z,15.30
2022-08-17T00:53:41.961Z,15.10
2022-08-17T00:56:10.642Z,14.30
2022-08-17T00:58:38.227Z,14.90
2022-08-17T01:01:06.709Z,14.90
2022-08-17T01:03:34.973Z,15.00
2022-08-17T01:06:02.715Z,15.40
2022-08-17T01:08:31.094Z,15.50
2022-08-17T01:11:02.018Z,15.60
2022-08-17T01:13:34.453Z,15.00
2022-08-17T01:16:05.945Z,15.10
2022-08-17T01:18:33.070Z,15.70
2022-08-17T01:21:04.907Z,15.70
2022-08-17T01:23:31.741Z,15.20
2022-08-17T01:25:59.615Z,15.10
2022-08-17T01:28:52.404Z,15.10
2022-08-17T01:31:14.864Z,15.60
2022-08-17T01:33:41.545Z,15.20
2022-08-17T01:36:08.338Z,15.20
2022-08-17T01:38:35.925Z,15.30
2022-08-17T01:41:07.525Z,15.20
2022-08-17T01:43:52.015Z,15.10
2022-08-17T01:46:21.857Z,15.10
2022-08-17T01:48:48.601Z,14.30
2022-08-17T01:51:15.998Z,14.00
2022-08-17T01:53:44.263Z,16.80
2022-08-17T01:56:13.744Z,14.80
2022-08-17T01:58:41.289Z,14.70
2022-08-17T02:01:08.567Z,14.80
2022-08-17T02:03:36.135Z,14.80
2022-08-17T02:06:03.060Z,14.80
2022-08-17T02:08:37.287Z,14.80
2022-08-17T02:11:11.649Z,14.70
2022-08-17T02:13:38.996Z,14.80
2022-08-17T02:16:05.857Z,15.60
2022-08-17T02:18:32.592Z,14.70
2022-08-17T02:43:27.194Z,13.30
2022-08-17T02:45:54.205Z,14.50
2022-08-17T02:48:30.710Z,16.00
2022-08-17T02:50:58.795Z,15.80
2022-08-17T02:53:25.652Z,14.40
2022-08-17T02:55:52.493Z,15.60
2022-08-17T03:01:03.368Z,14.20
2022-08-17T03:03:30.083Z,13.80
2022-08-17T03:05:56.783Z,13.70
2022-08-17T03:08:23.561Z,13.60
2022-08-17T03:10:50.597Z,13.80
2022-08-17T03:13:17.444Z,14.90
2022-08-17T03:15:45.277Z,14.10
2022-08-17T03:18:19.266Z,14.00
2022-08-17T03:20:52.593Z,12.80
2022-08-17T03:23:24.299Z,13.30
2022-08-17T03:25:53.075Z,14.40
2022-08-17T03:28:20.155Z,12.30
2022-08-17T03:30:46.838Z,12.70
2022-08-17T03:33:14.705Z,15.90
2022-08-17T03:35:41.816Z,12.60
2022-08-17T03:38:12.472Z,13.20
2022-08-17T03:40:56.361Z,13.70
2022-08-17T03:43:24.943Z,12.90
2022-08-17T03:46:24.950Z,13.10
2022-08-17T03:49:14.399Z,12.80
2022-08-17T03:51:59.594Z,13.50
2022-08-17T03:54:44.807Z,13.90
2022-08-17T03:57:11.946Z,13.90
2022-08-17T03:59:40.863Z,13.90
2022-08-17T04:02:13.015Z,14.50
2022-08-17T04:04:39.622Z,14.00
2022-08-17T04:07:06.831Z,13.90
2022-08-17T04:09:34.020Z,13.80
2022-08-17T04:12:01.197Z,13.70
2022-08-17T04:14:36.311Z,13.80
2022-08-17T04:17:19.965Z,13.90
2022-08-17T04:19:46.773Z,14.00
2022-08-17T04:22:32.597Z,14.00
2022-08-17T04:25:01.299Z,14.10
2022-08-17T04:27:27.980Z,14.00
2022-08-17T04:29:55.951Z,14.00
2022-08-17T04:33:03.393Z,13.90
2022-08-17T04:35:10.099Z,14.00
2022-08-17T04:37:37.742Z,14.10
2022-08-17T04:40:23.213Z,14.00
2022-08-17T04:45:27.442Z,14.10
2022-08-17T04:47:59.519Z,14.20
2022-08-17T04:50:26.259Z,14.10
2022-08-17T04:52:52.945Z,14.00
2022-08-17T04:55:19.667Z,14.20
2022-08-17T04:57:46.357Z,14.20
2022-08-17T05:00:13.192Z,14.30
2022-08-17T05:02:50.671Z,14.30
2022-08-17T05:05:18.746Z,14.40
2022-08-17T05:07:45.379Z,14.30
2022-08-17T05:10:12.004Z,14.40
2022-08-17T05:12:38.794Z,14.50
2022-08-17T05:15:05.669Z,14.40
2022-08-17T05:17:32.342Z,14.40
2022-08-17T05:19:59.028Z,14.30
2022-08-17T05:22:25.690Z,14.50
2022-08-17T05:24:53.940Z,13.90
2022-08-17T05:27:22.804Z,14.40
2022-08-17T05:29:50.184Z,13.90
2022-08-17T05:32:38.146Z,14.50
2022-08-17T05:35:03.931Z,14.60
2022-08-17T05:37:30.615Z,14.70
2022-08-17T05:39:57.342Z,14.80
2022-08-17T05:49:45.265Z,15.50
2022-08-17T05:54:49.570Z,16.20
2022-08-17T05:57:32.930Z,16.40
2022-08-17T06:00:20.327Z,16.50
2022-08-17T06:02:48.025Z,16.70
2022-08-17T06:05:20.952Z,16.70
2022-08-17T06:07:47.623Z,16.90
2022-08-17T06:10:18.454Z,17.10
2022-08-17T06:13:00.492Z,16.80
2022-08-17T06:15:33.301Z,17.20
2022-08-17T06:18:03.889Z,17.30
2022-08-17T06:20:35.653Z,16.80
2022-08-17T06:23:04.122Z,18.60
2022-08-17T06:25:36.695Z,19.10
2022-08-17T06:35:50.689Z,18.60
2022-08-17T06:38:37.662Z,18.90
2022-08-17T06:41:12.352Z,19.10
2022-08-17T06:43:47.905Z,19.30
2022-08-17T06:46:24.091Z,19.50
2022-08-17T06:48:56.736Z,19.70
2022-08-17T06:53:53.421Z,19.60
2022-08-17T07:06:13.660Z,20.80
2022-08-17T07:08:53.659Z,21.00
2022-08-17T07:16:28.050Z,21.50
2022-08-17T07:21:40.807Z,21.80
2022-08-17T07:26:34.772Z,22.10
2022-08-17T07:29:02.339Z,22.40
2022-08-17T07:31:30.571Z,22.50
2022-08-17T07:34:02.923Z,22.40
2022-08-17T07:36:33.813Z,22.60
2022-08-17T07:39:02.058Z,22.80
2022-08-17T07:41:57.199Z,22.90
2022-08-17T07:44:18.186Z,23.30
2022-08-17T07:47:08.393Z,22.20
2022-08-17T07:57:19.428Z,24.40
2022-08-17T08:00:01.642Z,24.50
2022-08-17T08:02:33.842Z,24.80
2022-08-17T08:05:09.993Z,24.90
2022-08-17T08:07:50.427Z,25.00
2022-08-17T08:10:32.747Z,25.10
2022-08-17T08:15:33.666Z,25.20
2022-08-17T08:23:25.462Z,25.80
2022-08-17T08:25:56.585Z,26.10
2022-08-17T08:29:01.416Z,26.20
2022-08-17T08:31:45.902Z,25.90
2022-08-17T08:35:00.751Z,25.90
2022-08-17T08:39:57.827Z,26.20
2022-08-17T08:45:04.991Z,27.00
2022-08-17T08:50:37.567Z,27.30
2022-08-17T08:53:09.628Z,27.50
2022-08-17T08:55:36.810Z,27.90
2022-08-17T09:00:35.779Z,27.90
2022-08-17T09:03:06.203Z,28.60
2022-08-17T09:05:45.076Z,27.90
2022-08-17T09:11:00.030Z,28.10
2022-08-17T09:13:38.930Z,27.90
2022-08-17T09:16:05.616Z,28.00
2022-08-17T09:19:00.093Z,28.10
2022-08-17T09:21:23.289Z,29.20
2022-08-17T09:23:59.861Z,27.90
2022-08-17T09:29:01.419Z,28.50
2022-08-17T09:31:41.841Z,28.70
2022-08-17T09:34:18.291Z,28.70
2022-08-17T09:39:15.097Z,29.30
2022-08-17T09:41:51.898Z,29.30
2022-08-17T09:44:28.479Z,29.40
2022-08-17T09:47:15.161Z,29.20
2022-08-17T09:49:45.427Z,29.20
2022-08-17T09:52:26.039Z,29.70
2022-08-17T09:54:54.347Z,29.20
2022-08-17T10:16:14.191Z,30.00
2022-08-17T10:18:59.470Z,30.20
2022-08-17T10:21:44.956Z,30.50
2022-08-17T10:46:55.431Z,31.80
2022-08-17T10:49:22.042Z,32.60
2022-08-17T10:56:47.525Z,32.00
2022-08-17T11:01:44.179Z,31.90
2022-08-17T11:04:11.188Z,32.70
2022-08-17T11:06:37.818Z,32.10
2022-08-17T11:09:15.382Z,32.70
2022-08-17T11:11:47.468Z,31.70
2022-08-17T11:16:47.903Z,31.40
2022-08-17T11:19:17.548Z,32.00
2022-08-17T11:22:06.492Z,33.00
2022-08-17T11:24:40.622Z,33.20
2022-08-17T11:27:41.548Z,33.40
2022-08-17T11:30:11.336Z,33.20
2022-08-17T11:32:47.977Z,32.30
2022-08-17T11:35:15.442Z,32.50
2022-08-17T11:38:01.832Z,32.60
2022-08-17T11:40:31.553Z,33.70
2022-08-17T11:45:40.439Z,33.00
2022-08-17T11:48:33.271Z,33.10
2022-08-17T11:51:47.767Z,33.30
2022-08-17T11:54:34.369Z,32.70
2022-08-17T11:57:21.532Z,32.40
2022-08-17T11:59:48.190Z,32.60
2022-08-17T12:02:31.384Z,32.40
2022-08-17T12:05:02.595Z,32.60
2022-08-17T12:12:33.261Z,32.40
2022-08-17T12:20:15.558Z,34.20
2022-08-17T12:22:53.366Z,33.80
2022-08-17T12:25:24.074Z,33.50
2022-08-17T12:28:05.245Z,33.40
2022-08-17T12:30:32.630Z,33.50
2022-08-17T12:32:59.735Z,33.70
2022-08-17T12:35:29.731Z,33.50
2022-08-17T12:38:00.428Z,34.50
2022-08-17T12:40:31.614Z,34.70
2022-08-17T12:43:00.766Z,34.50
2022-08-17T12:45:30.724Z,33.80
2022-08-17T12:48:20.391Z,33.80
2022-08-17T12:50:47.254Z,33.90
2022-08-17T13:03:21.649Z,31.80
2022-08-17T13:05:56.381Z,31.90
2022-08-17T13:08:25.460Z,31.80
2022-08-17T13:10:57.140Z,32.30
2022-08-17T13:20:54.299Z,31.30
2022-08-17T13:28:18.985Z,31.10
2022-08-17T13:31:27.826Z,30.70
2022-08-17T13:36:30.304Z,30.60
2022-08-17T13:41:33.613Z,30.50
2022-08-17T13:44:00.506Z,30.50
2022-08-17T13:46:31.445Z,31.00
2022-08-17T13:49:03.175Z,30.50
2022-08-17T13:51:31.404Z,30.50
2022-08-17T13:53:59.402Z,30.30
2022-08-17T13:56:38.571Z,30.80
2022-08-17T13:59:08.561Z,31.40
2022-08-17T14:04:04.692Z,31.40
2022-08-17T14:06:53.835Z,32.00
2022-08-17T14:09:22.732Z,32.00
2022-08-17T14:11:49.912Z,31.60
2022-08-17T14:16:43.889Z,30.50
2022-08-17T14:19:12.654Z,30.30
2022-08-17T14:21:40.427Z,31.00
2022-08-17T14:24:08.898Z,30.70
2022-08-17T14:26:36.069Z,29.60
2022-08-17T14:31:34.068Z,29.10
2022-08-17T14:34:03.557Z,29.90
2022-08-17T14:38:57.959Z,29.20
2022-08-17T14:41:24.836Z,29.60
2022-08-17T14:43:53.412Z,29.70
2022-08-17T14:46:20.296Z,30.10
2022-08-17T14:48:47.167Z,29.20
2022-08-17T14:51:14.547Z,29.60
2022-08-17T14:53:41.508Z,30.50
2022-08-17T14:56:08.955Z,30.60
2022-08-17T14:58:35.639Z,31.10
2022-08-17T15:01:07.818Z,30.80
2022-08-17T15:03:39.262Z,29.90
2022-08-17T15:06:06.002Z,30.50
2022-08-17T15:08:32.804Z,31.00
2022-08-17T15:11:01.229Z,30.80
2022-08-17T15:13:27.933Z,30.70
2022-08-17T15:15:54.945Z,31.20
2022-08-17T15:18:21.779Z,31.20
2022-08-17T15:20:50.127Z,31.10
2022-08-17T15:23:18.858Z,30.90
2022-08-17T15:25:47.090Z,31.60
2022-08-17T15:28:13.883Z,32.50
2022-08-17T15:30:44.953Z,31.90
2022-08-17T15:35:39.005Z,31.90
2022-08-17T15:38:11.795Z,32.20
2022-08-17T15:40:42.956Z,31.50
2022-08-17T15:43:11.666Z,31.20
2022-08-17T15:45:38.976Z,30.60
2022-08-17T15:48:05.675Z,31.50
2022-08-17T15:50:32.407Z,30.60
2022-08-17T15:52:59.948Z,32.20
2022-08-17T15:55:27.995Z,31.50
2022-08-17T15:57:54.942Z,31.00
2022-08-17T16:00:23.972Z,31.00
2022-08-17T16:03:45.010Z,31.00
2022-08-17T16:05:37.703Z,31.90
2022-08-17T16:08:07.357Z,30.10
2022-08-17T16:17:58.333Z,29.10
2022-08-17T16:20:25.038Z,29.50
2022-08-17T16:22:51.929Z,29.60
2022-08-17T16:25:20.587Z,30.10
2022-08-17T16:30:17.604Z,30.50
2022-08-17T16:32:45.893Z,31.20
2022-08-17T16:35:16.956Z,31.10
2022-08-17T16:37:45.454Z,30.90
2022-08-17T16:40:13.685Z,30.90
2022-08-17T16:42:40.798Z,30.40
2022-08-17T16:45:09.842Z,30.60
2022-08-17T16:47:36.842Z,30.00
2022-08-17T16:50:05.070Z,30.80
2022-08-17T16:52:33.490Z,30.20
2022-08-17T16:55:01.570Z,30.20
2022-08-17T16:57:29.098Z,30.10
2022-08-17T16:59:56.499Z,29.20
2022-08-17T17:02:26.115Z,30.40
2022-08-17T17:05:22.760Z,29.30
2022-08-17T17:07:52.463Z,29.30
2022-08-17T17:10:21.984Z,29.10
2022-08-17T17:13:01.429Z,29.40
2022-08-17T17:15:37.297Z,30.40
2022-08-17T17:18:06.930Z,28.50
2022-08-17T17:20:38.874Z,28.50
2022-08-17T17:23:18.204Z,29.60
2022-08-17T17:25:51.008Z,28.30
2022-08-17T17:28:25.328Z,28.30
2022-08-17T17:31:04.375Z,28.20
2022-08-17T17:36:01.982Z,28.10
2022-08-17T17:38:34.238Z,28.80
2022-08-17T17:41:07.389Z,27.90
2022-08-17T17:43:41.377Z,27.80
2022-08-17T17:46:26.746Z,29.10
2022-08-17T17:48:55.148Z,28.90
2022-08-17T17:52:09.605Z,27.40
2022-08-17T17:54:33.945Z,28.80
2022-08-17T17:57:03.684Z,27.30
2022-08-17T18:02:36.844Z,27.10
2022-08-17T18:05:08.668Z,27.20
2022-08-17T18:07:42.137Z,27.70
2022-08-17T18:10:29.896Z,27.40
2022-08-17T18:12:57.382Z,26.50
2022-08-17T18:15:24.038Z,27.10
2022-08-17T18:18:23.204Z,27.50
2022-08-17T18:20:55.802Z,26.30
2022-08-17T18:23:28.194Z,27.30
2022-08-17T18:25:56.177Z,25.50
2022-08-17T18:28:36.789Z,25.40
2022-08-17T18:33:30.615Z,25.00
2022-08-17T18:53:30.250Z,24.90
2022-08-17T18:58:27.438Z,24.60
2022-08-17T19:00:54.196Z,24.50
2022-08-17T19:03:25.489Z,24.40
2022-08-17T19:06:10.822Z,24.40
2022-08-17T19:08:37.797Z,24.20
2022-08-17T19:13:35.496Z,23.70
2022-08-17T19:16:17.620Z,23.50
2022-08-17T19:18:58.665Z,23.60
2022-08-17T19:21:27.052Z,23.70
2022-08-17T19:23:58.656Z,25.00
2022-08-17T19:26:54.075Z,23.40
2022-08-17T19:29:19.411Z,23.60
2022-08-17T19:31:46.706Z,23.40
2022-08-17T19:34:14.947Z,23.30
2022-08-17T19:36:47.324Z,23.40
2022-08-17T19:39:37.729Z,23.40
2022-08-17T19:42:10.721Z,23.40
2022-08-17T19:44:49.563Z,23.40
2022-08-17T19:47:53.249Z,23.30
2022-08-17T19:50:39.055Z,23.20
2022-08-17T19:53:11.880Z,23.00
2022-08-17T19:55:59.362Z,22.90
2022-08-17T19:58:39.954Z,22.70
2022-08-17T20:01:10.103Z,22.70
2022-08-17T20:03:51.030Z,22.60
2022-08-17T20:06:18.768Z,22.70
2022-08-17T20:08:53.805Z,23.50
2022-08-17T20:11:24.741Z,23.50
2022-08-17T20:13:54.463Z,22.50
2022-08-17T20:16:21.257Z,22.50
2022-08-17T20:18:54.042Z,22.60
2022-08-17T20:21:20.858Z,22.40
2022-08-17T20:24:04.415Z,22.40
2022-08-17T20:26:57.887Z,22.50
2022-08-17T20:29:40.247Z,22.30
2022-08-17T20:32:13.616Z,23.10
2022-08-17T20:44:33.870Z,22.20
2022-08-17T20:49:48.263Z,21.60
2022-08-17T20:52:34.827Z,21.60
2022-08-17T23:16:42.604Z,19.60
2022-08-17T23:19:13.471Z,20.90
2022-08-17T23:21:40.284Z,19.60
2022-08-17T23:24:08.876Z,19.30
2022-08-17T23:26:38.016Z,19.30
2022-08-17T23:29:05.189Z,19.10
2022-08-17T23:31:34.812Z,19.90
2022-08-17T23:34:03.463Z,19.10
2022-08-17T23:36:31.579Z,20.60
2022-08-17T23:38:58.435Z,19.20
2022-08-17T23:41:27.455Z,20.60
2022-08-17T23:43:55.072Z,18.90
2022-08-17T23:46:25.103Z,19.70
2022-08-17T23:48:54.089Z,19.80
2022-08-17T23:51:25.436Z,19.30
2022-08-17T23:53:57.978Z,19.30
2022-08-17T23:56:26.081Z,19.20
